Terminal Aerodrome Forecast
Issued by NWS

Home | Current Version | Previous Version | Text Only | Print | Product List | Glossary On
Versions: 1 2 3 4 5 6 7 8 9 10 11 12 13 14 15
000
FTUS44 KBMX 290523
TAFTCL
TAF
KTCL 290523Z 2906/3006 16007KT P6SM BKN045
     FM290800 18008KT P6SM OVC015
     FM291000 16006KT P6SM OVC007
     FM291500 16018G27KT P6SM SCT040 SCT250
     FM300100 15009KT P6SM SCT060 SCT250=

USA.gov is the U.S. government's official web portal to all federal, state and local government web resources and services.